createdAt,value
2017-09-03T00:02:25.892Z,10.00
2017-09-03T00:04:53.484Z,10.00
2017-09-03T00:07:21.052Z,10.00
2017-09-03T00:09:48.599Z,9.90
2017-09-03T00:12:16.190Z,9.90
2017-09-03T00:14:43.760Z,9.90
2017-09-03T00:17:11.337Z,9.90
2017-09-03T00:19:38.899Z,9.90
2017-09-03T00:22:06.493Z,10.00
2017-09-03T00:24:34.053Z,10.00
2017-09-03T00:27:01.623Z,10.10
2017-09-03T00:29:29.168Z,10.00
2017-09-03T00:31:56.750Z,10.00
2017-09-03T00:34:24.337Z,9.90
2017-09-03T00:36:51.896Z,9.90
2017-09-03T00:39:19.494Z,9.90
2017-09-03T00:41:47.051Z,9.90
2017-09-03T00:44:14.641Z,9.80
2017-09-03T00:46:42.213Z,9.80
2017-09-03T00:49:09.801Z,9.80
2017-09-03T00:51:37.352Z,9.90
2017-09-03T00:54:04.939Z,9.90
2017-09-03T00:56:32.510Z,9.90
2017-09-03T00:59:00.077Z,10.00
2017-09-03T01:01:27.657Z,10.10
2017-09-03T01:03:55.198Z,10.10
2017-09-03T01:06:23.555Z,10.00
2017-09-03T01:08:51.135Z,10.00
2017-09-03T01:11:18.715Z,10.10
2017-09-03T01:13:46.267Z,10.20
2017-09-03T01:16:13.853Z,10.20
2017-09-03T01:18:41.402Z,10.20
2017-09-03T01:21:08.970Z,10.10
2017-09-03T01:23:36.552Z,10.20
2017-09-03T01:26:04.100Z,10.30
2017-09-03T01:28:31.691Z,10.30
2017-09-03T01:30:59.248Z,10.40
2017-09-03T01:33:26.830Z,10.40
2017-09-03T01:35:54.389Z,10.30
2017-09-03T01:38:22.701Z,10.10
2017-09-03T01:40:50.277Z,10.10
2017-09-03T01:43:17.834Z,10.10
2017-09-03T01:45:45.431Z,10.10
2017-09-03T01:48:13.014Z,10.10
2017-09-03T01:50:40.577Z,10.10
2017-09-03T01:53:08.164Z,10.20
2017-09-03T01:55:36.192Z,10.20
2017-09-03T01:58:03.796Z,10.20
2017-09-03T02:00:31.358Z,10.20
2017-09-03T02:02:58.910Z,10.20
2017-09-03T02:05:26.492Z,10.20
2017-09-03T02:07:54.053Z,10.20
2017-09-03T02:10:21.631Z,10.10
2017-09-03T02:12:49.189Z,10.10
2017-09-03T02:15:16.753Z,10.10
2017-09-03T02:17:44.339Z,10.10
2017-09-03T02:20:11.901Z,10.10
2017-09-03T02:22:39.489Z,10.10
2017-09-03T02:25:07.051Z,10.20
2017-09-03T02:27:34.617Z,10.20
2017-09-03T02:30:02.193Z,10.20
2017-09-03T02:32:29.757Z,10.20
2017-09-03T02:34:57.336Z,10.20
2017-09-03T02:37:24.895Z,10.30
2017-09-03T02:39:52.449Z,10.20
2017-09-03T02:42:20.019Z,10.10
2017-09-03T02:44:48.352Z,10.10
2017-09-03T02:47:15.941Z,10.10
2017-09-03T02:49:43.483Z,10.10
2017-09-03T02:52:11.026Z,10.20
2017-09-03T02:54:38.638Z,10.10
2017-09-03T02:57:06.201Z,10.20
2017-09-03T02:59:33.790Z,10.20
2017-09-03T03:02:01.332Z,10.10
2017-09-03T03:04:28.885Z,10.10
2017-09-03T03:06:56.456Z,10.00
2017-09-03T03:09:24.013Z,9.90
2017-09-03T03:11:51.596Z,9.90
2017-09-03T03:14:19.144Z,9.90
2017-09-03T03:16:46.707Z,9.90
2017-09-03T03:19:14.284Z,9.90
2017-09-03T03:21:41.833Z,9.90
2017-09-03T03:24:09.422Z,9.90
2017-09-03T03:26:36.983Z,10.00
2017-09-03T03:29:04.549Z,9.90
2017-09-03T03:31:32.139Z,10.00
2017-09-03T03:33:59.717Z,10.00
2017-09-03T03:36:27.301Z,10.00
2017-09-03T03:38:54.863Z,10.00
2017-09-03T03:41:22.419Z,10.00
2017-09-03T03:43:49.993Z,10.00
2017-09-03T03:46:17.549Z,10.00
2017-09-03T03:48:45.134Z,10.10
2017-09-03T03:51:12.685Z,10.00
2017-09-03T03:53:40.246Z,10.00
2017-09-03T03:56:07.831Z,9.90
2017-09-03T03:58:35.367Z,9.90
2017-09-03T04:01:02.991Z,9.80
2017-09-03T04:03:30.538Z,9.80
2017-09-03T04:05:58.079Z,9.90
2017-09-03T04:08:25.667Z,9.80
2017-09-03T04:10:53.218Z,9.90
2017-09-03T04:13:20.793Z,9.90
2017-09-03T04:15:48.341Z,9.90
2017-09-03T04:18:15.886Z,9.90
2017-09-03T04:20:43.447Z,9.90
2017-09-03T04:23:11.003Z,9.90
2017-09-03T04:25:38.587Z,9.80
2017-09-03T04:28:06.137Z,9.80
2017-09-03T04:30:33.698Z,9.80
2017-09-03T04:33:01.260Z,9.70
2017-09-03T04:35:28.812Z,9.70
2017-09-03T04:37:56.406Z,9.70
2017-09-03T04:40:23.954Z,9.70
2017-09-03T04:42:51.519Z,9.70
2017-09-03T04:45:19.110Z,9.70
2017-09-03T04:47:46.661Z,9.70
2017-09-03T04:50:14.241Z,9.70
2017-09-03T04:52:41.806Z,9.60
2017-09-03T04:55:09.339Z,9.60
2017-09-03T04:57:36.963Z,9.60
2017-09-03T05:00:04.525Z,9.60
2017-09-03T05:02:32.105Z,9.60
2017-09-03T05:04:59.672Z,9.70
2017-09-03T05:07:27.231Z,9.60
2017-09-03T05:09:54.823Z,9.70
2017-09-03T05:12:22.391Z,9.70
2017-09-03T05:14:49.937Z,9.70
2017-09-03T05:17:17.526Z,9.70
2017-09-03T05:19:45.094Z,9.70
2017-09-03T05:22:12.655Z,9.70
2017-09-03T05:24:40.225Z,9.70
2017-09-03T05:27:07.790Z,9.70
2017-09-03T05:29:35.371Z,9.70
2017-09-03T05:32:02.949Z,9.70
2017-09-03T05:34:30.514Z,9.70
2017-09-03T05:36:58.124Z,9.70
2017-09-03T05:39:25.684Z,9.70
2017-09-03T05:41:53.258Z,9.70
2017-09-03T05:44:20.806Z,9.70
2017-09-03T05:46:48.339Z,9.80
2017-09-03T05:49:15.912Z,9.80
2017-09-03T05:51:43.471Z,9.80
2017-09-03T05:54:11.057Z,9.80
2017-09-03T05:56:38.604Z,9.90
2017-09-03T05:59:06.148Z,9.90
2017-09-03T06:01:33.752Z,10.00
2017-09-03T06:04:01.299Z,10.00
2017-09-03T06:06:28.900Z,10.00
2017-09-03T06:08:56.450Z,10.00
2017-09-03T06:11:24.005Z,10.00
2017-09-03T06:13:51.590Z,10.00
2017-09-03T06:16:19.141Z,10.00
2017-09-03T06:18:46.728Z,10.00
2017-09-03T06:21:14.265Z,10.00
2017-09-03T06:23:41.816Z,10.00
2017-09-03T06:26:09.502Z,10.00
2017-09-03T06:28:37.074Z,10.10
2017-09-03T06:31:04.671Z,10.10
2017-09-03T06:33:32.230Z,10.10
2017-09-03T06:35:59.791Z,10.00
2017-09-03T06:38:27.365Z,10.10
2017-09-03T06:40:54.946Z,10.10
2017-09-03T06:43:22.708Z,10.10
2017-09-03T06:45:50.274Z,10.10
2017-09-03T06:48:17.855Z,10.10
2017-09-03T06:50:45.451Z,10.10
2017-09-03T06:53:13.013Z,10.10
2017-09-03T06:55:40.601Z,10.20
2017-09-03T06:58:08.160Z,10.20
2017-09-03T07:00:35.727Z,10.20
2017-09-03T07:03:03.311Z,10.10
2017-09-03T07:05:30.879Z,10.10
2017-09-03T07:07:58.469Z,10.20
2017-09-03T07:10:26.036Z,10.20
2017-09-03T07:12:53.593Z,10.20
2017-09-03T07:15:21.191Z,10.20
2017-09-03T07:17:48.750Z,10.20
2017-09-03T07:20:16.337Z,10.30
2017-09-03T07:22:43.893Z,10.30
2017-09-03T07:25:11.440Z,10.30
2017-09-03T07:27:39.020Z,10.30
2017-09-03T07:30:06.574Z,10.30
2017-09-03T07:32:34.143Z,10.30
2017-09-03T07:35:01.693Z,10.30
2017-09-03T07:37:29.263Z,10.30
2017-09-03T07:39:56.854Z,10.30
2017-09-03T07:42:24.414Z,10.30
2017-09-03T07:44:52.004Z,10.30
2017-09-03T07:47:19.560Z,10.40
2017-09-03T07:49:47.113Z,10.40
2017-09-03T07:52:15.461Z,10.50
2017-09-03T07:54:43.059Z,10.50
2017-09-03T07:57:10.668Z,10.60
2017-09-03T07:59:38.212Z,10.60
2017-09-03T08:02:05.778Z,10.70
2017-09-03T08:04:33.376Z,10.70
2017-09-03T08:07:00.946Z,10.70
2017-09-03T08:09:28.533Z,10.70
2017-09-03T08:11:56.258Z,10.80
2017-09-03T08:14:23.831Z,10.80
2017-09-03T08:16:51.417Z,10.80
2017-09-03T08:19:18.968Z,10.80
2017-09-03T08:21:46.556Z,10.90
2017-09-03T08:24:14.117Z,10.90
2017-09-03T08:26:41.682Z,11.00
2017-09-03T08:29:09.274Z,11.10
2017-09-03T08:31:36.844Z,11.20
2017-09-03T08:34:04.457Z,11.30
2017-09-03T08:36:32.051Z,11.30
2017-09-03T08:38:59.605Z,11.50
2017-09-03T08:41:27.201Z,11.70
2017-09-03T08:43:54.812Z,11.80
2017-09-03T08:46:22.409Z,12.00
2017-09-03T08:48:49.966Z,12.30
2017-09-03T08:51:17.528Z,12.50
2017-09-03T08:53:45.864Z,13.00
2017-09-03T08:56:13.431Z,12.90
2017-09-03T08:58:41.004Z,13.20
2017-09-03T09:01:08.548Z,13.40
2017-09-03T09:03:36.118Z,13.70
2017-09-03T09:06:03.709Z,13.90
2017-09-03T09:08:31.278Z,14.10
2017-09-03T09:10:58.866Z,14.20
2017-09-03T09:13:26.417Z,14.20
2017-09-03T09:15:53.980Z,14.30
2017-09-03T09:18:21.557Z,14.30
2017-09-03T09:20:49.116Z,14.20
2017-09-03T09:23:16.691Z,14.10
2017-09-03T09:25:44.268Z,14.10
2017-09-03T09:28:11.849Z,14.10
2017-09-03T09:30:39.452Z,14.00
2017-09-03T09:33:07.006Z,13.90
2017-09-03T09:35:34.581Z,13.80
2017-09-03T09:38:02.129Z,13.60
2017-09-03T09:40:29.678Z,13.60
2017-09-03T09:42:57.268Z,13.50
2017-09-03T09:45:24.848Z,13.50
2017-09-03T09:47:52.445Z,13.50
2017-09-03T09:50:20.013Z,13.50
2017-09-03T09:52:47.564Z,13.50
2017-09-03T09:55:15.166Z,13.50
2017-09-03T09:57:42.734Z,13.50
2017-09-03T10:00:10.328Z,13.40
2017-09-03T10:02:37.882Z,13.40
2017-09-03T10:05:05.433Z,13.40
2017-09-03T10:07:32.999Z,13.30
2017-09-03T10:10:00.544Z,13.30
2017-09-03T10:12:28.126Z,13.40
2017-09-03T10:14:55.671Z,13.50
2017-09-03T10:17:23.218Z,13.60
2017-09-03T10:19:50.796Z,13.90
2017-09-03T10:22:18.340Z,14.20
2017-09-03T10:24:45.933Z,14.50
2017-09-03T10:27:13.500Z,14.50
2017-09-03T10:29:41.052Z,14.60
2017-09-03T10:32:08.632Z,14.80
2017-09-03T10:34:36.182Z,14.90
2017-09-03T10:37:03.758Z,15.10
2017-09-03T10:39:31.323Z,15.10
2017-09-03T10:41:58.876Z,15.10
2017-09-03T10:44:26.463Z,15.00
2017-09-03T10:46:54.013Z,14.90
2017-09-03T10:49:21.615Z,14.80
2017-09-03T10:51:49.159Z,14.70
2017-09-03T10:54:16.711Z,14.60
2017-09-03T10:56:44.282Z,14.50
2017-09-03T10:59:11.866Z,14.30
2017-09-03T11:01:39.461Z,14.10
2017-09-03T11:04:07.022Z,14.00
2017-09-03T11:06:34.586Z,13.80
2017-09-03T11:09:02.165Z,13.70
2017-09-03T11:11:29.721Z,13.60
2017-09-03T11:13:57.314Z,13.50
2017-09-03T11:16:25.633Z,13.50
2017-09-03T11:18:53.180Z,13.50
2017-09-03T11:21:20.742Z,13.60
2017-09-03T11:23:48.297Z,13.60
2017-09-03T11:26:15.877Z,13.60
2017-09-03T11:28:43.426Z,13.70
2017-09-03T11:31:10.984Z,13.90
2017-09-03T11:33:38.559Z,14.00
2017-09-03T11:36:06.124Z,14.10
2017-09-03T11:38:33.697Z,14.10
2017-09-03T11:41:01.241Z,14.10
2017-09-03T11:43:28.788Z,14.10
2017-09-03T11:45:56.365Z,14.10
2017-09-03T11:48:23.920Z,14.20
2017-09-03T11:50:51.491Z,14.20
2017-09-03T11:53:19.057Z,14.20
2017-09-03T11:55:46.619Z,14.30
2017-09-03T11:58:14.198Z,14.30
2017-09-03T12:00:42.578Z,14.40
2017-09-03T12:03:10.136Z,14.40
2017-09-03T12:05:38.477Z,14.50
2017-09-03T12:08:06.025Z,14.50
2017-09-03T12:10:33.597Z,14.60
2017-09-03T12:13:01.174Z,14.60
2017-09-03T12:15:28.725Z,14.60
2017-09-03T12:17:56.310Z,14.70
2017-09-03T12:20:23.874Z,14.70
2017-09-03T12:22:51.463Z,14.70
2017-09-03T12:25:19.009Z,14.50
2017-09-03T12:27:46.574Z,14.40
2017-09-03T12:30:14.131Z,14.40
2017-09-03T12:32:41.677Z,14.30
2017-09-03T12:35:09.287Z,14.20
2017-09-03T12:37:36.836Z,14.20
2017-09-03T12:40:04.385Z,14.20
2017-09-03T12:42:31.950Z,14.20
2017-09-03T12:44:59.501Z,14.20
2017-09-03T12:47:27.093Z,14.30
2017-09-03T12:49:54.645Z,14.30
2017-09-03T12:52:22.208Z,14.40
2017-09-03T12:54:49.788Z,14.50
2017-09-03T12:57:17.341Z,14.70
2017-09-03T12:59:44.978Z,14.90
2017-09-03T13:02:12.527Z,15.00
2017-09-03T13:04:40.105Z,15.00
2017-09-03T13:07:07.723Z,15.00
2017-09-03T13:09:35.277Z,14.90
2017-09-03T13:12:02.870Z,14.90
2017-09-03T13:14:30.430Z,14.80
2017-09-03T13:16:58.090Z,14.70
2017-09-03T13:19:25.685Z,14.70
2017-09-03T13:21:53.454Z,14.60
2017-09-03T13:24:21.057Z,14.50
2017-09-03T13:26:48.615Z,14.50
2017-09-03T13:29:16.177Z,14.30
2017-09-03T13:31:43.752Z,14.20
2017-09-03T13:34:11.313Z,14.00
2017-09-03T13:36:38.907Z,13.90
2017-09-03T13:39:06.461Z,13.70
2017-09-03T13:41:34.022Z,13.40
2017-09-03T13:44:01.605Z,12.80
2017-09-03T13:46:29.157Z,12.30
2017-09-03T13:48:56.741Z,12.10
2017-09-03T13:51:24.304Z,12.00
2017-09-03T13:53:51.870Z,11.90
2017-09-03T13:56:19.451Z,11.50
2017-09-03T13:58:47.009Z,11.30
2017-09-03T14:01:14.590Z,11.30
2017-09-03T14:03:42.170Z,11.30
2017-09-03T14:06:09.735Z,11.30
2017-09-03T14:08:37.319Z,11.30
2017-09-03T14:11:04.873Z,11.50
2017-09-03T14:13:32.452Z,11.60
2017-09-03T14:16:00.001Z,11.60
2017-09-03T14:18:27.557Z,11.80
2017-09-03T14:20:55.127Z,11.90
2017-09-03T14:23:22.687Z,12.00
2017-09-03T14:25:50.286Z,12.20
2017-09-03T14:28:17.846Z,12.30
2017-09-03T14:30:45.391Z,12.50
2017-09-03T14:33:12.986Z,12.60
2017-09-03T14:35:40.545Z,12.60
2017-09-03T14:38:08.136Z,12.50
2017-09-03T14:40:35.692Z,12.50
2017-09-03T14:43:03.245Z,12.50
2017-09-03T14:45:30.825Z,12.50
2017-09-03T14:50:32.425Z,12.50
2017-09-03T14:52:59.982Z,12.50
2017-09-03T14:55:27.610Z,12.50
2017-09-03T14:57:55.179Z,12.60
2017-09-03T15:00:22.729Z,12.80
2017-09-03T15:02:50.317Z,12.90
2017-09-03T15:05:17.863Z,13.00
2017-09-03T15:07:45.417Z,13.00
2017-09-03T15:10:13.003Z,13.00
2017-09-03T15:12:40.544Z,13.10
2017-09-03T15:15:08.131Z,13.20
2017-09-03T15:17:35.688Z,13.20
2017-09-03T15:20:03.262Z,13.30
2017-09-03T15:22:30.865Z,13.30
2017-09-03T15:24:58.421Z,13.20
2017-09-03T15:27:26.027Z,13.30
2017-09-03T15:29:53.609Z,13.30
2017-09-03T15:32:21.162Z,13.30
2017-09-03T15:34:48.731Z,13.40
2017-09-03T15:37:16.304Z,13.40
2017-09-03T15:39:43.884Z,13.40
2017-09-03T15:42:11.438Z,13.50
2017-09-03T15:44:38.986Z,13.50
2017-09-03T15:47:06.586Z,13.50
2017-09-03T15:49:34.127Z,13.50
2017-09-03T15:52:01.731Z,13.60
2017-09-03T15:54:29.323Z,13.60
2017-09-03T15:56:56.906Z,13.60
2017-09-03T15:59:24.485Z,13.40
2017-09-03T16:01:52.020Z,13.30
2017-09-03T16:04:19.602Z,13.20
2017-09-03T16:06:47.157Z,13.10
2017-09-03T16:09:14.723Z,12.90
2017-09-03T16:11:42.310Z,12.70
2017-09-03T16:14:09.979Z,12.60
2017-09-03T16:16:37.583Z,12.50
2017-09-03T16:19:05.152Z,12.50
2017-09-03T16:21:32.712Z,12.30
2017-09-03T16:24:00.307Z,12.30
2017-09-03T16:26:27.865Z,12.20
2017-09-03T16:28:55.453Z,12.20
2017-09-03T16:31:23.027Z,12.20
2017-09-03T16:33:50.590Z,12.10
2017-09-03T16:36:18.183Z,12.00
2017-09-03T16:38:45.750Z,12.00
2017-09-03T16:41:13.328Z,12.00
2017-09-03T16:43:40.918Z,12.00
2017-09-03T16:46:08.463Z,12.00
2017-09-03T16:48:36.075Z,12.10
2017-09-03T16:51:04.595Z,12.10
2017-09-03T16:53:32.348Z,12.10
2017-09-03T16:55:59.925Z,12.00
2017-09-03T16:58:27.555Z,12.00
2017-09-03T17:00:55.251Z,11.90
2017-09-03T17:03:23.215Z,11.90
2017-09-03T17:05:50.813Z,11.90
2017-09-03T17:08:18.408Z,12.00
2017-09-03T17:10:45.992Z,12.00
2017-09-03T17:13:13.615Z,11.90
2017-09-03T17:15:41.206Z,11.90
2017-09-03T17:18:08.803Z,11.90
2017-09-03T17:20:36.911Z,11.90
2017-09-03T17:23:04.472Z,11.80
2017-09-03T17:25:32.070Z,11.80
2017-09-03T17:27:59.650Z,11.70
2017-09-03T17:30:27.249Z,11.70
2017-09-03T17:32:54.830Z,11.70
2017-09-03T17:35:27.019Z,11.80
2017-09-03T17:41:01.503Z,11.80
2017-09-03T17:43:31.575Z,11.70
2017-09-03T17:46:01.128Z,11.50
2017-09-03T17:48:28.697Z,11.30
2017-09-03T17:50:56.275Z,11.30
2017-09-03T17:53:23.885Z,11.20
2017-09-03T17:55:51.461Z,11.20
2017-09-03T17:58:19.073Z,11.20
2017-09-03T18:00:46.624Z,11.10
2017-09-03T18:03:15.747Z,11.10
2017-09-03T18:05:43.339Z,11.10
2017-09-03T18:08:10.918Z,11.00
2017-09-03T18:10:38.508Z,11.00
2017-09-03T18:13:06.068Z,10.90
2017-09-03T18:15:33.634Z,10.90
2017-09-03T18:18:01.230Z,10.80
2017-09-03T18:20:28.796Z,10.70
2017-09-03T18:22:56.401Z,10.70
2017-09-03T18:25:23.950Z,10.70
2017-09-03T18:27:53.244Z,10.70
2017-09-03T18:30:21.535Z,10.70
2017-09-03T18:32:49.436Z,10.70
2017-09-03T18:35:17.885Z,10.70
2017-09-03T18:37:45.452Z,10.70
2017-09-03T18:40:32.857Z,10.70
2017-09-03T18:43:00.433Z,10.60
2017-09-03T18:45:28.017Z,10.60
2017-09-03T18:47:55.607Z,10.60
2017-09-03T18:50:26.908Z,10.50
2017-09-03T18:52:55.348Z,10.50
2017-09-03T18:58:25.378Z,10.40
2017-09-03T19:00:52.962Z,10.30
2017-09-03T19:03:20.533Z,10.20
2017-09-03T19:06:06.761Z,10.20
2017-09-03T19:08:34.333Z,10.10
2017-09-03T19:11:01.919Z,10.00
2017-09-03T19:13:29.515Z,10.00
2017-09-03T19:15:57.070Z,9.90
2017-09-03T19:18:24.656Z,9.80
2017-09-03T19:20:52.211Z,9.60
2017-09-03T19:23:19.809Z,9.50
2017-09-03T19:25:47.391Z,9.40
2017-09-03T19:28:14.954Z,9.40
2017-09-03T19:30:42.549Z,9.30
2017-09-03T19:33:10.129Z,9.30
2017-09-03T19:35:37.733Z,9.30
2017-09-03T19:38:06.939Z,9.30
2017-09-03T19:40:34.488Z,9.30
2017-09-03T19:43:02.058Z,9.30
2017-09-03T19:45:29.618Z,9.30
2017-09-03T19:47:57.196Z,9.30
2017-09-03T19:50:24.753Z,9.20
2017-09-03T19:52:52.303Z,9.20
2017-09-03T19:55:19.886Z,9.10
2017-09-03T19:57:47.434Z,9.00
2017-09-03T20:00:15.016Z,9.00
2017-09-03T20:02:42.564Z,9.00
2017-09-03T20:05:10.112Z,9.00
2017-09-03T20:07:37.686Z,9.00
2017-09-03T20:10:05.263Z,8.90
2017-09-03T20:12:32.856Z,8.90
2017-09-03T20:15:00.395Z,8.80
2017-09-03T20:17:27.952Z,8.70
2017-09-03T20:19:55.533Z,8.60
2017-09-03T20:22:23.079Z,8.60
2017-09-03T20:24:50.674Z,8.60
2017-09-03T20:27:18.222Z,8.50
2017-09-03T20:29:45.781Z,8.50
2017-09-03T20:32:13.352Z,8.40
2017-09-03T20:34:40.916Z,8.40
2017-09-03T20:37:08.517Z,8.40
2017-09-03T20:39:36.074Z,8.30
2017-09-03T20:42:03.668Z,8.30
2017-09-03T20:44:31.258Z,8.20
2017-09-03T20:46:58.827Z,8.20
2017-09-03T20:49:26.394Z,8.10
2017-09-03T20:51:53.998Z,8.10
2017-09-03T20:54:23.122Z,8.10
2017-09-03T20:56:51.566Z,8.10
2017-09-03T20:59:19.205Z,8.00
2017-09-03T21:01:46.749Z,8.00
2017-09-03T21:04:14.354Z,7.90
2017-09-03T21:06:41.924Z,7.90
2017-09-03T21:09:09.523Z,7.80
2017-09-03T21:11:37.080Z,7.80
2017-09-03T21:14:04.633Z,7.80
2017-09-03T21:16:32.195Z,7.70
2017-09-03T21:18:59.767Z,7.60
2017-09-03T21:21:27.349Z,7.60
2017-09-03T21:23:54.910Z,7.50
2017-09-03T21:26:22.469Z,7.50
2017-09-03T21:28:50.824Z,7.50
2017-09-03T21:31:18.378Z,7.40
2017-09-03T21:33:45.957Z,7.40
2017-09-03T21:36:13.514Z,7.40
2017-09-03T21:38:41.072Z,7.40
2017-09-03T21:41:08.658Z,7.30
2017-09-03T21:43:36.217Z,7.30
2017-09-03T21:46:03.817Z,7.20
2017-09-03T21:48:31.369Z,7.20
2017-09-03T21:50:58.919Z,7.10
2017-09-03T21:53:26.517Z,7.10
2017-09-03T21:55:54.073Z,7.10
2017-09-03T21:58:21.670Z,7.10
2017-09-03T22:00:49.234Z,7.00
2017-09-03T22:03:17.551Z,6.90
2017-09-03T22:05:45.124Z,6.90
2017-09-03T22:08:12.687Z,6.90
2017-09-03T22:10:40.277Z,6.80
2017-09-03T22:13:07.824Z,6.80
2017-09-03T22:15:35.700Z,6.80
2017-09-03T22:18:03.280Z,6.80
2017-09-03T22:20:30.847Z,6.90
2017-09-03T22:22:58.451Z,7.00
2017-09-03T22:25:26.010Z,7.00
2017-09-03T22:27:53.569Z,6.90
2017-09-03T22:30:21.157Z,6.90
2017-09-03T22:32:48.709Z,6.90
2017-09-03T22:35:16.298Z,6.80
2017-09-03T22:37:43.847Z,6.70
2017-09-03T22:40:11.396Z,6.70
2017-09-03T22:42:38.970Z,6.70
2017-09-03T22:45:06.532Z,6.60
2017-09-03T22:47:34.117Z,6.50
2017-09-03T22:50:01.655Z,6.40
2017-09-03T22:52:29.219Z,6.40
2017-09-03T22:54:57.570Z,6.20
2017-09-03T22:57:25.120Z,6.20
2017-09-03T22:59:52.689Z,6.20
2017-09-03T23:02:20.249Z,6.20
2017-09-03T23:04:47.805Z,6.20
2017-09-03T23:07:15.384Z,6.20
2017-09-03T23:09:42.932Z,6.20
2017-09-03T23:12:10.520Z,6.20
2017-09-03T23:14:38.069Z,6.10
2017-09-03T23:17:05.621Z,6.10
2017-09-03T23:19:33.976Z,6.00
2017-09-03T23:22:01.537Z,6.00
2017-09-03T23:24:29.118Z,6.00
2017-09-03T23:26:57.437Z,5.90
2017-09-03T23:29:24.975Z,5.90
2017-09-03T23:31:52.551Z,5.90
2017-09-03T23:34:20.086Z,5.90
2017-09-03T23:36:48.424Z,5.80
2017-09-03T23:39:15.981Z,5.80
2017-09-03T23:41:43.513Z,5.80
2017-09-03T23:44:11.091Z,5.70
2017-09-03T23:46:38.634Z,5.70
2017-09-03T23:49:06.205Z,5.60
2017-09-03T23:51:33.747Z,5.60
2017-09-03T23:54:01.298Z,5.60
2017-09-03T23:56:28.859Z,5.60
2017-09-03T23:58:56.410Z,5.60
